createdAt,value
2023-05-12T00:01:46.535Z,7.27
2023-05-12T00:06:48.905Z,8.63
2023-05-12T00:11:51.193Z,9.10
2023-05-12T00:16:53.635Z,5.70
2023-05-12T00:21:55.860Z,4.67
2023-05-12T00:26:58.136Z,4.33
2023-05-12T00:32:00.718Z,3.07
2023-05-12T00:37:03.061Z,4.37
2023-05-12T00:42:05.771Z,4.70
2023-05-12T00:47:09.260Z,5.43
2023-05-12T00:52:11.862Z,5.10
2023-05-12T00:57:14.806Z,5.27
2023-05-12T01:02:17.384Z,5.47
2023-05-12T01:07:23.146Z,5.67
2023-05-12T01:12:27.445Z,2.60
2023-05-12T01:17:35.211Z,3.30
2023-05-12T01:22:40.146Z,4.63
2023-05-12T01:27:43.939Z,4.73
2023-05-12T01:32:46.431Z,5.43
2023-05-12T01:37:48.660Z,4.83
2023-05-12T01:42:50.810Z,5.90
2023-05-12T01:47:53.658Z,4.10
2023-05-12T01:52:56.078Z,3.57
2023-05-12T01:57:58.251Z,2.63
2023-05-12T02:03:01.170Z,3.10
2023-05-12T02:08:04.540Z,3.70
2023-05-12T02:13:07.200Z,3.20
2023-05-12T02:18:10.449Z,3.10
2023-05-12T02:23:14.697Z,4.50
2023-05-12T02:28:16.986Z,4.77
2023-05-12T02:33:23.359Z,4.87
2023-05-12T02:38:25.947Z,3.60
2023-05-12T02:43:28.203Z,3.67
2023-05-12T02:48:30.782Z,4.03
2023-05-12T02:53:33.332Z,4.00
2023-05-12T02:58:35.754Z,3.80
2023-05-12T03:03:38.078Z,4.07
2023-05-12T03:08:40.481Z,4.60
2023-05-12T03:13:42.670Z,3.80
2023-05-12T03:18:44.829Z,4.37
2023-05-12T03:23:47.119Z,6.03
2023-05-12T03:28:49.505Z,10.20
2023-05-12T03:33:51.613Z,351.43
2023-05-12T03:38:53.976Z,397.47
2023-05-12T03:43:56.281Z,349.33
2023-05-12T03:48:59.133Z,380.27
2023-05-12T03:54:01.859Z,349.00
2023-05-12T03:59:04.375Z,297.60
2023-05-12T04:04:06.659Z,253.67
2023-05-12T04:09:08.909Z,299.27
2023-05-12T04:14:11.977Z,247.57
2023-05-12T04:19:14.078Z,202.97
2023-05-12T04:24:16.590Z,131.77
2023-05-12T04:29:19.036Z,154.63
2023-05-12T04:34:22.419Z,99.40
2023-05-12T04:39:25.523Z,94.70
2023-05-12T04:44:28.319Z,80.77
2023-05-12T04:49:30.919Z,56.30
2023-05-12T04:54:33.283Z,53.67
2023-05-12T04:59:36.296Z,53.77
2023-05-12T05:04:38.909Z,54.77
2023-05-12T05:09:41.146Z,48.53
2023-05-12T05:14:43.315Z,40.53
2023-05-12T05:19:57.286Z,38.60
2023-05-12T05:25:01.065Z,32.83
2023-05-12T05:30:03.676Z,19.00
2023-05-12T05:35:08.529Z,25.47
2023-05-12T05:40:14.514Z,28.63
2023-05-12T05:45:17.066Z,25.73
2023-05-12T05:50:19.730Z,22.53
2023-05-12T05:55:22.540Z,15.67
2023-05-12T06:00:25.933Z,12.07
2023-05-12T06:05:28.566Z,7.80
2023-05-12T06:10:31.252Z,7.33
2023-05-12T06:15:34.380Z,8.53
2023-05-12T06:20:36.622Z,7.93
2023-05-12T06:25:38.824Z,263.03
2023-05-12T06:30:41.012Z,413.20
2023-05-12T06:35:43.316Z,443.83
2023-05-12T06:40:45.657Z,340.40
2023-05-12T06:45:48.306Z,330.27
2023-05-12T06:50:50.462Z,277.50
2023-05-12T06:55:56.462Z,223.67
2023-05-12T07:00:59.470Z,150.97
2023-05-12T07:06:02.256Z,143.73
2023-05-12T07:11:04.630Z,130.30
2023-05-12T07:16:07.533Z,449.47
2023-05-12T07:21:10.519Z,430.90
2023-05-12T07:26:12.785Z,381.77
2023-05-12T07:31:15.005Z,313.73
2023-05-12T07:36:17.201Z,219.80
2023-05-12T07:41:19.414Z,161.90
2023-05-12T07:46:21.547Z,123.00
2023-05-12T07:51:23.989Z,60.90
2023-05-12T07:56:26.167Z,46.13
2023-05-12T08:01:28.388Z,22.43
2023-05-12T08:06:31.941Z,14.97
2023-05-12T08:11:34.335Z,8.20
2023-05-12T08:16:36.857Z,14.13
2023-05-12T08:21:39.082Z,16.70
2023-05-12T08:26:41.343Z,12.30
2023-05-12T08:31:43.780Z,12.73
2023-05-12T08:36:46.126Z,15.27
2023-05-12T08:42:11.002Z,13.43
2023-05-12T08:47:15.074Z,10.97
2023-05-12T08:52:21.856Z,11.13
2023-05-12T08:57:26.403Z,376.53
2023-05-12T09:02:44.756Z,494.07
2023-05-12T09:07:53.571Z,547.70
2023-05-12T09:13:04.456Z,475.00
2023-05-12T09:18:06.944Z,493.53
2023-05-12T09:23:22.202Z,509.77
2023-05-12T09:28:24.500Z,508.33
2023-05-12T09:33:26.686Z,434.07
2023-05-12T09:38:29.057Z,376.83
2023-05-12T09:43:31.696Z,338.73
2023-05-12T09:48:34.514Z,315.60
2023-05-12T09:53:43.285Z,292.33
2023-05-12T09:58:48.576Z,274.33
2023-05-12T10:03:57.225Z,266.97
2023-05-12T10:09:19.549Z,251.50
2023-05-12T10:14:23.794Z,271.00
2023-05-12T10:19:28.581Z,265.10
2023-05-12T10:24:30.824Z,176.63
2023-05-12T10:29:35.338Z,180.90
2023-05-12T10:34:42.113Z,151.17
2023-05-12T10:39:52.538Z,137.10
2023-05-12T10:44:56.883Z,238.33
2023-05-12T10:50:00.093Z,227.43
2023-05-12T10:55:04.530Z,206.70
2023-05-12T11:00:14.885Z,231.80
2023-05-12T11:05:18.693Z,236.60
2023-05-12T11:10:22.080Z,232.10
2023-05-12T11:15:24.960Z,201.73
2023-05-12T11:20:29.534Z,198.53
2023-05-12T11:25:33.516Z,187.73
2023-05-12T11:30:35.836Z,395.30
2023-05-12T11:35:38.024Z,553.67
2023-05-12T11:40:41.499Z,625.90
2023-05-12T11:45:46.208Z,605.13
2023-05-12T11:50:51.477Z,601.77
2023-05-12T11:55:56.852Z,559.03
2023-05-12T12:01:12.840Z,501.80
2023-05-12T12:06:15.959Z,556.73
2023-05-12T12:11:19.949Z,509.50
2023-05-12T12:16:27.426Z,505.47
2023-05-12T12:21:29.682Z,404.33
2023-05-12T12:26:32.060Z,465.20
2023-05-12T12:31:36.473Z,453.80
2023-05-12T12:36:38.796Z,456.60
2023-05-12T12:41:41.295Z,454.13
2023-05-12T12:46:44.138Z,468.00
2023-05-12T12:51:47.358Z,478.80
2023-05-12T12:56:49.636Z,524.97
2023-05-12T13:01:51.999Z,512.33
2023-05-12T13:06:54.220Z,468.30
2023-05-12T13:11:56.559Z,450.13
2023-05-12T13:16:58.851Z,437.90
2023-05-12T13:22:01.044Z,429.20
2023-05-12T13:27:08.311Z,450.63
2023-05-12T13:32:10.593Z,445.87
2023-05-12T13:37:12.743Z,448.23
2023-05-12T13:42:15.133Z,464.33
2023-05-12T13:47:18.601Z,257.37
2023-05-12T13:52:21.119Z,243.10
2023-05-12T13:57:23.356Z,264.80
2023-05-12T14:02:25.804Z,283.47
2023-05-12T14:07:29.365Z,331.90
2023-05-12T14:12:31.988Z,265.37
2023-05-12T14:17:34.594Z,268.00
2023-05-12T14:22:36.916Z,292.47
2023-05-12T14:27:38.980Z,273.80
2023-05-12T14:32:41.358Z,285.20
2023-05-12T14:37:43.740Z,298.03
2023-05-12T14:42:47.464Z,294.67
2023-05-12T14:47:49.736Z,259.63
2023-05-12T14:52:52.026Z,292.53
2023-05-12T14:57:54.212Z,342.47
2023-05-12T15:02:56.478Z,362.33
2023-05-12T15:07:58.855Z,361.80
2023-05-12T15:13:01.183Z,361.93
2023-05-12T15:18:04.459Z,355.80
2023-05-12T15:23:07.028Z,344.60
2023-05-12T15:28:09.132Z,349.37
2023-05-12T15:33:11.445Z,414.77
2023-05-12T15:38:13.966Z,346.50
2023-05-12T15:43:16.142Z,383.83
2023-05-12T15:48:18.391Z,333.43
2023-05-12T15:53:20.641Z,388.80
2023-05-12T15:58:22.732Z,355.33
2023-05-12T16:03:25.192Z,368.43
2023-05-12T16:08:27.469Z,339.60
2023-05-12T16:13:29.638Z,336.70
2023-05-12T16:18:32.471Z,456.00
2023-05-12T16:23:34.935Z,380.40
2023-05-12T16:28:37.502Z,411.53
2023-05-12T16:33:39.765Z,410.33
2023-05-12T16:38:41.953Z,450.20
2023-05-12T16:43:44.188Z,467.30
2023-05-12T16:48:46.496Z,308.90
2023-05-12T16:53:48.653Z,335.73
2023-05-12T16:58:51.206Z,376.40
2023-05-12T17:03:53.407Z,386.60
2023-05-12T17:08:55.610Z,133.00
2023-05-12T17:13:57.970Z,64.90
2023-05-12T17:24:06.034Z,74.47
2023-05-12T17:29:08.336Z,86.97
2023-05-12T17:34:10.521Z,69.63
2023-05-12T17:39:15.904Z,85.40
2023-05-12T17:44:18.380Z,101.57
2023-05-12T17:49:20.600Z,91.73
2023-05-12T17:54:22.949Z,93.93
2023-05-12T17:59:25.406Z,115.87
2023-05-12T18:04:27.633Z,95.17
2023-05-12T18:09:30.455Z,95.50
2023-05-12T18:14:33.022Z,96.40
2023-05-12T18:19:35.679Z,84.00
2023-05-12T18:24:37.918Z,97.50
2023-05-12T18:29:40.184Z,100.00
2023-05-12T18:34:44.196Z,100.97
2023-05-12T18:39:46.377Z,105.87
2023-05-12T18:44:48.976Z,113.30
2023-05-12T18:49:51.224Z,112.60
2023-05-12T18:54:53.375Z,139.00
2023-05-12T18:59:55.924Z,133.10
2023-05-12T19:04:58.087Z,119.53
2023-05-12T19:10:00.305Z,129.83
2023-05-12T19:15:02.866Z,123.47
2023-05-12T19:20:06.370Z,111.83
2023-05-12T19:25:09.658Z,135.00
2023-05-12T19:30:14.152Z,152.37
2023-05-12T19:35:20.084Z,162.47
2023-05-12T19:40:22.345Z,154.37
2023-05-12T19:45:24.551Z,140.60
2023-05-12T19:50:29.679Z,126.67
2023-05-12T19:55:31.992Z,120.63
2023-05-12T20:00:34.596Z,114.63
2023-05-12T20:05:37.843Z,126.03
2023-05-12T20:10:40.063Z,120.33
2023-05-12T20:15:44.193Z,143.97
2023-05-12T20:20:46.310Z,145.80
2023-05-12T20:25:48.490Z,158.43
2023-05-12T20:30:50.759Z,168.00
2023-05-12T20:35:52.973Z,174.57
2023-05-12T20:40:55.549Z,155.67
2023-05-12T20:45:57.759Z,123.37
2023-05-12T20:51:09.344Z,145.97
2023-05-12T20:56:12.979Z,139.07
2023-05-12T21:01:18.989Z,174.17
2023-05-12T21:06:21.163Z,152.93
2023-05-12T21:11:23.305Z,151.13
2023-05-12T21:16:25.572Z,139.43
2023-05-12T21:21:28.877Z,165.97
2023-05-12T21:26:30.966Z,165.27
2023-05-12T21:31:33.384Z,167.60
2023-05-12T21:36:35.834Z,214.17
2023-05-12T21:41:38.715Z,171.87
2023-05-12T21:46:41.168Z,137.57
2023-05-12T21:51:43.386Z,110.47
2023-05-12T21:56:45.492Z,107.47
2023-05-12T22:01:47.691Z,110.10
2023-05-12T22:06:52.007Z,92.27
2023-05-12T22:11:54.153Z,107.80
2023-05-12T22:16:56.877Z,92.90
2023-05-12T22:21:59.141Z,81.87
2023-05-12T22:27:01.575Z,92.67
2023-05-12T22:32:04.209Z,102.13
2023-05-12T22:37:06.462Z,101.03
2023-05-12T22:42:08.541Z,104.13
2023-05-12T22:47:10.930Z,102.93
2023-05-12T22:52:13.255Z,130.63
2023-05-12T22:57:15.421Z,151.87
2023-05-12T23:02:17.569Z,111.80
2023-05-12T23:07:19.742Z,105.83
2023-05-12T23:12:21.914Z,94.37
2023-05-12T23:17:24.230Z,116.27
2023-05-12T23:22:26.552Z,109.93
2023-05-12T23:27:28.706Z,107.13
2023-05-12T23:32:31.422Z,102.20
2023-05-12T23:37:34.358Z,139.87
2023-05-12T23:42:36.637Z,182.90
2023-05-12T23:47:39.055Z,198.23
2023-05-12T23:52:41.403Z,173.70
2023-05-12T23:57:43.530Z,215.10
